sensor_id;sensor_type;location;lat;lon;timestamp;pressure;altitude;pressure_sealevel;temperature;humidity
46942;BME280;32676;52.630;4.896;2023-02-16T00:00:53;102749.25;;;6.02;78.05
46942;BME280;32676;52.630;4.896;2023-02-16T00:03:21;102734.44;;;5.99;78.06
46942;BME280;32676;52.630;4.896;2023-02-16T00:05:48;102732.66;;;5.98;78.05
46942;BME280;32676;52.630;4.896;2023-02-16T00:08:15;102739.66;;;5.99;78.18
46942;BME280;32676;52.630;4.896;2023-02-16T00:10:42;102744.94;;;6.02;78.21
46942;BME280;32676;52.630;4.896;2023-02-16T00:13:30;102743.16;;;6.01;78.42
46942;BME280;32676;52.630;4.896;2023-02-16T00:16:15;102734.44;;;5.99;78.43
46942;BME280;32676;52.630;4.896;2023-02-16T00:18:43;102735.31;;;6.00;78.37
46942;BME280;32676;52.630;4.896;2023-02-16T00:21:09;102748.38;;;6.01;78.44
46942;BME280;32676;52.630;4.896;2023-02-16T00:23:36;102744.00;;;6.00;78.41
46942;BME280;32676;52.630;4.896;2023-02-16T00:26:03;102725.72;;;5.97;78.24
46942;BME280;32676;52.630;4.896;2023-02-16T00:28:30;102717.78;;;5.94;78.15
46942;BME280;32676;52.630;4.896;2023-02-16T00:30:57;102698.59;;;5.90;78.23
46942;BME280;32676;52.630;4.896;2023-02-16T00:33:25;102680.25;;;5.86;78.11
46942;BME280;32676;52.630;4.896;2023-02-16T00:35:51;102671.50;;;5.84;78.26
46942;BME280;32676;52.630;4.896;2023-02-16T00:38:18;102661.94;;;5.83;78.17
46942;BME280;32676;52.630;4.896;2023-02-16T00:40:45;102661.03;;;5.81;78.11
46942;BME280;32676;52.630;4.896;2023-02-16T00:43:21;102640.00;;;5.71;78.24
46942;BME280;32676;52.630;4.896;2023-02-16T00:45:49;102647.09;;;5.79;78.31
46942;BME280;32676;52.630;4.896;2023-02-16T00:48:16;102654.03;;;5.80;78.30
46942;BME280;32676;52.630;4.896;2023-02-16T00:50:44;102645.28;;;5.76;78.29
46942;BME280;32676;52.630;4.896;2023-02-16T00:53:10;102647.94;;;5.77;78.36
46942;BME280;32676;52.630;4.896;2023-02-16T00:55:38;102645.31;;;5.77;78.56
46942;BME280;32676;52.630;4.896;2023-02-16T00:58:07;102627.91;;;5.75;78.34
46942;BME280;32676;52.630;4.896;2023-02-16T01:00:39;102630.50;;;5.75;78.44
46942;BME280;32676;52.630;4.896;2023-02-16T01:03:10;102605.16;;;5.66;78.34
46942;BME280;32676;52.630;4.896;2023-02-16T01:05:37;102593.81;;;5.64;78.43
46942;BME280;32676;52.630;4.896;2023-02-16T01:08:09;102559.78;;;5.58;78.48
46942;BME280;32676;52.630;4.896;2023-02-16T01:10:53;102544.97;;;5.54;78.59
46942;BME280;32676;52.630;4.896;2023-02-16T01:13:43;102520.53;;;5.49;78.78
46942;BME280;32676;52.630;4.896;2023-02-16T01:16:15;102521.41;;;5.48;78.88
46942;BME280;32676;52.630;4.896;2023-02-16T01:18:42;102527.53;;;5.50;78.93
46942;BME280;32676;52.630;4.896;2023-02-16T01:21:08;102530.13;;;5.50;79.05
46942;BME280;32676;52.630;4.896;2023-02-16T01:23:37;102521.44;;;5.51;79.09
46942;BME280;32676;52.630;4.896;2023-02-16T01:26:04;102516.19;;;5.48;79.03
46942;BME280;32676;52.630;4.896;2023-02-16T01:28:33;102518.81;;;5.49;79.09
46942;BME280;32676;52.630;4.896;2023-02-16T01:31:00;102536.22;;;5.50;79.06
46942;BME280;32676;52.630;4.896;2023-02-16T01:33:27;102542.34;;;5.54;79.05
46942;BME280;32676;52.630;4.896;2023-02-16T01:35:54;102542.34;;;5.54;79.27
46942;BME280;32676;52.630;4.896;2023-02-16T01:38:24;102551.06;;;5.56;79.40
46942;BME280;32676;52.630;4.896;2023-02-16T01:40:59;102552.72;;;5.51;79.30
46942;BME280;32676;52.630;4.896;2023-02-16T01:43:34;102561.56;;;5.59;79.41
46942;BME280;32676;52.630;4.896;2023-02-16T01:46:11;102563.31;;;5.60;79.34
46942;BME280;32676;52.630;4.896;2023-02-16T01:48:39;102565.06;;;5.61;79.45
46942;BME280;32676;52.630;4.896;2023-02-16T01:51:11;102592.94;;;5.65;79.69
46942;BME280;32676;52.630;4.896;2023-02-16T01:53:43;102601.66;;;5.67;79.88
46942;BME280;32676;52.630;4.896;2023-02-16T01:56:20;102609.47;;;5.64;79.94
46942;BME280;32676;52.630;4.896;2023-02-16T01:58:54;102644.47;;;5.79;79.95
46942;BME280;32676;52.630;4.896;2023-02-16T02:06:31;102698.63;;;5.92;80.21
46942;BME280;32676;52.630;4.896;2023-02-16T02:09:00;102711.72;;;5.95;80.08
46942;BME280;32676;52.630;4.896;2023-02-16T02:11:31;102737.06;;;6.01;80.18
46942;BME280;32676;52.630;4.896;2023-02-16T02:14:02;102755.41;;;6.05;80.14
46942;BME280;32676;52.630;4.896;2023-02-16T02:16:31;102758.91;;;6.07;80.14
46942;BME280;32676;52.630;4.896;2023-02-16T02:18:58;102774.63;;;6.10;80.13
46942;BME280;32676;52.630;4.896;2023-02-16T02:21:39;102787.75;;;6.13;80.03
46942;BME280;32676;52.630;4.896;2023-02-16T02:25:11;102800.84;;;6.17;80.26
46942;BME280;32676;52.630;4.896;2023-02-16T02:27:48;102802.69;;;6.21;80.20
46942;BME280;32676;52.630;4.896;2023-02-16T02:30:28;102821.78;;;6.20;80.16
46942;BME280;32676;52.630;4.896;2023-02-16T02:33:20;102843.69;;;6.28;80.21
46942;BME280;32676;52.630;4.896;2023-02-16T02:35:59;102863.78;;;6.32;80.41
46942;BME280;32676;52.630;4.896;2023-02-16T02:38:37;102877.78;;;6.36;80.37
46942;BME280;32676;52.630;4.896;2023-02-16T02:41:11;102892.63;;;6.40;80.33
46942;BME280;32676;52.630;4.896;2023-02-16T02:43:43;102902.28;;;6.42;80.28
46942;BME280;32676;52.630;4.896;2023-02-16T02:46:15;102895.19;;;6.35;80.28
46942;BME280;32676;52.630;4.896;2023-02-16T02:48:44;102916.28;;;6.46;80.29
46942;BME280;32676;52.630;4.896;2023-02-16T02:51:11;102929.38;;;6.49;80.35
46942;BME280;32676;52.630;4.896;2023-02-16T02:54:00;102918.81;;;6.43;80.29
46942;BME280;32676;52.630;4.896;2023-02-16T02:56:48;102938.09;;;6.51;80.26
46942;BME280;32676;52.630;4.896;2023-02-16T02:59:35;102952.09;;;6.54;80.41
46942;BME280;32676;52.630;4.896;2023-02-16T03:02:22;102974.84;;;6.60;80.58
46942;BME280;32676;52.630;4.896;2023-02-16T03:04:51;102996.69;;;6.64;80.56
46942;BME280;32676;52.630;4.896;2023-02-16T03:07:22;103001.91;;;6.64;80.60
46942;BME280;32676;52.630;4.896;2023-02-16T03:10:10;103008.97;;;6.68;80.64
46942;BME280;32676;52.630;4.896;2023-02-16T03:12:50;103007.19;;;6.67;80.52
46942;BME280;32676;52.630;4.896;2023-02-16T03:15:19;103003.75;;;6.68;80.32
46942;BME280;32676;52.630;4.896;2023-02-16T03:17:46;103006.31;;;6.66;80.47
46942;BME280;32676;52.630;4.896;2023-02-16T03:20:30;103013.34;;;6.69;80.37
46942;BME280;32676;52.630;4.896;2023-02-16T03:23:14;103017.72;;;6.70;80.39
46942;BME280;32676;52.630;4.896;2023-02-16T03:25:58;103019.47;;;6.71;80.37
46942;BME280;32676;52.630;4.896;2023-02-16T03:28:43;103028.19;;;6.73;80.40
46942;BME280;32676;52.630;4.896;2023-02-16T03:31:32;103030.81;;;6.73;80.46
46942;BME280;32676;52.630;4.896;2023-02-16T03:33:59;103022.94;;;6.70;80.49
46942;BME280;32676;52.630;4.896;2023-02-16T03:36:28;103029.97;;;6.74;80.31
46942;BME280;32676;52.630;4.896;2023-02-16T03:38:56;103030.84;;;6.75;80.46
46942;BME280;32676;52.630;4.896;2023-02-16T03:41:24;103035.22;;;6.74;80.42
46942;BME280;32676;52.630;4.896;2023-02-16T03:43:51;103021.16;;;6.69;80.40
46942;BME280;32676;52.630;4.896;2023-02-16T03:46:18;103023.84;;;6.72;80.35
46942;BME280;32676;52.630;4.896;2023-02-16T03:48:46;103022.97;;;6.73;80.43
46942;BME280;32676;52.630;4.896;2023-02-16T03:51:12;103026.44;;;6.70;80.47
46942;BME280;32676;52.630;4.896;2023-02-16T03:53:39;103026.50;;;6.73;80.36
46942;BME280;32676;52.630;4.896;2023-02-16T03:56:06;103035.22;;;6.74;80.38
46942;BME280;32676;52.630;4.896;2023-02-16T03:58:32;103036.97;;;6.75;80.48
46942;BME280;32676;52.630;4.896;2023-02-16T04:00:59;103031.63;;;6.69;80.54
46942;BME280;32676;52.630;4.896;2023-02-16T04:03:25;103049.25;;;6.79;80.73
46942;BME280;32676;52.630;4.896;2023-02-16T04:05:53;103057.13;;;6.81;80.71
46942;BME280;32676;52.630;4.896;2023-02-16T04:08:21;103070.22;;;6.82;80.69
46942;BME280;32676;52.630;4.896;2023-02-16T04:10:47;103082.50;;;6.86;80.84
46942;BME280;32676;52.630;4.896;2023-02-16T04:13:14;103077.19;;;6.83;80.98
46942;BME280;32676;52.630;4.896;2023-02-16T04:15:39;103075.44;;;6.82;81.03
46942;BME280;32676;52.630;4.896;2023-02-16T04:18:06;103076.38;;;6.86;81.16
46942;BME280;32676;52.630;4.896;2023-02-16T04:20:33;103077.25;;;6.86;81.27
46942;BME280;32676;52.630;4.896;2023-02-16T04:23:02;103091.22;;;6.88;81.32
46942;BME280;32676;52.630;4.896;2023-02-16T04:25:29;103085.16;;;6.89;81.55
46942;BME280;32676;52.630;4.896;2023-02-16T04:27:55;103099.16;;;6.91;81.58
46942;BME280;32676;52.630;4.896;2023-02-16T04:30:24;103119.25;;;6.96;81.84
46942;BME280;32676;52.630;4.896;2023-02-16T04:32:52;103124.47;;;6.96;82.03
46942;BME280;32676;52.630;4.896;2023-02-16T04:35:19;103143.75;;;7.01;82.40
46942;BME280;32676;52.630;4.896;2023-02-16T04:37:46;103156.88;;;7.04;82.56
46942;BME280;32676;52.630;4.896;2023-02-16T04:40:16;103177.00;;;7.08;82.80
46942;BME280;32676;52.630;4.896;2023-02-16T04:42:44;103180.53;;;7.10;82.92
46942;BME280;32676;52.630;4.896;2023-02-16T04:45:11;103179.63;;;7.08;82.93
46942;BME280;32676;52.630;4.896;2023-02-16T04:47:38;103206.78;;;7.16;83.12
46942;BME280;32676;52.630;4.896;2023-02-16T04:50:06;103223.38;;;7.18;83.35
46942;BME280;32676;52.630;4.896;2023-02-16T04:52:33;103242.72;;;7.25;83.53
46942;BME280;32676;52.630;4.896;2023-02-16T04:55:00;103247.13;;;7.27;83.60
46942;BME280;32676;52.630;4.896;2023-02-16T04:57:28;103262.88;;;7.30;83.70
46942;BME280;32676;52.630;4.896;2023-02-16T04:59:55;103267.19;;;7.28;83.82
46942;BME280;32676;52.630;4.896;2023-02-16T05:02:21;103280.38;;;7.35;83.78
46942;BME280;32676;52.630;4.896;2023-02-16T05:04:48;103287.41;;;7.36;83.95
46942;BME280;32676;52.630;4.896;2023-02-16T05:07:14;103289.16;;;7.37;83.85
46942;BME280;32676;52.630;4.896;2023-02-16T05:09:41;103292.63;;;7.36;83.90
46942;BME280;32676;52.630;4.896;2023-02-16T05:12:09;103295.31;;;7.39;83.84
46942;BME280;32676;52.630;4.896;2023-02-16T05:14:55;103303.16;;;7.39;83.78
46942;BME280;32676;52.630;4.896;2023-02-16T05:17:22;103313.66;;;7.42;83.71
46942;BME280;32676;52.630;4.896;2023-02-16T05:19:51;103315.44;;;7.43;83.85
46942;BME280;32676;52.630;4.896;2023-02-16T05:22:18;103324.22;;;7.45;83.70
46942;BME280;32676;52.630;4.896;2023-02-16T05:24:45;103327.75;;;7.47;83.48
46942;BME280;32676;52.630;4.896;2023-02-16T05:27:13;103327.75;;;7.47;83.63
46942;BME280;32676;52.630;4.896;2023-02-16T05:29:40;103337.41;;;7.49;83.56
46942;BME280;32676;52.630;4.896;2023-02-16T05:32:08;103337.41;;;7.49;83.46
46942;BME280;32676;52.630;4.896;2023-02-16T05:34:35;103335.63;;;7.48;83.54
46942;BME280;32676;52.630;4.896;2023-02-16T05:37:02;103339.13;;;7.49;83.48
46942;BME280;32676;52.630;4.896;2023-02-16T05:39:29;103337.38;;;7.48;83.39
46942;BME280;32676;52.630;4.896;2023-02-16T05:41:55;103350.47;;;7.51;83.33
46942;BME280;32676;52.630;4.896;2023-02-16T05:44:22;103346.16;;;7.52;83.25
46942;BME280;32676;52.630;4.896;2023-02-16T05:46:49;103348.81;;;7.53;83.45
46942;BME280;32676;52.630;4.896;2023-02-16T05:49:17;103352.19;;;7.49;83.20
46942;BME280;32676;52.630;4.896;2023-02-16T05:51:44;103348.75;;;7.50;83.09
46942;BME280;32676;52.630;4.896;2023-02-16T05:54:11;103346.97;;;7.49;83.06
46942;BME280;32676;52.630;4.896;2023-02-16T05:56:42;103347.88;;;7.51;83.01
46942;BME280;32676;52.630;4.896;2023-02-16T05:59:09;103337.41;;;7.51;83.10
46942;BME280;32676;52.630;4.896;2023-02-16T06:01:35;103339.06;;;7.47;83.04
46942;BME280;32676;52.630;4.896;2023-02-16T06:04:05;103347.91;;;7.53;83.14
46942;BME280;32676;52.630;4.896;2023-02-16T06:06:33;103329.50;;;7.48;83.16
46942;BME280;32676;52.630;4.896;2023-02-16T06:08:59;103346.16;;;7.52;83.15
46942;BME280;32676;52.630;4.896;2023-02-16T06:11:26;103332.13;;;7.48;83.13
46942;BME280;32676;52.630;4.896;2023-02-16T06:14:02;103333.03;;;7.50;83.19
46942;BME280;32676;52.630;4.896;2023-02-16T06:16:30;103341.75;;;7.50;83.23
46942;BME280;32676;52.630;4.896;2023-02-16T06:18:58;103330.38;;;7.48;83.20
46942;BME280;32676;52.630;4.896;2023-02-16T06:21:25;103315.53;;;7.46;83.23
46942;BME280;32676;52.630;4.896;2023-02-16T06:23:53;103326.00;;;7.46;83.35
46942;BME280;32676;52.630;4.896;2023-02-16T06:26:20;103315.53;;;7.46;83.32
46942;BME280;32676;52.630;4.896;2023-02-16T06:28:46;103322.44;;;7.44;83.48
46942;BME280;32676;52.630;4.896;2023-02-16T06:31:13;103322.44;;;7.44;83.50
46942;BME280;32676;52.630;4.896;2023-02-16T06:33:40;103315.53;;;7.46;83.55
46942;BME280;32676;52.630;4.896;2023-02-16T06:36:07;103313.75;;;7.45;83.51
46942;BME280;32676;52.630;4.896;2023-02-16T06:38:34;103314.63;;;7.45;83.60
46942;BME280;32676;52.630;4.896;2023-02-16T06:41:02;103317.22;;;7.45;83.73
46942;BME280;32676;52.630;4.896;2023-02-16T06:43:30;103306.69;;;7.41;83.69
46942;BME280;32676;52.630;4.896;2023-02-16T06:45:56;103311.13;;;7.45;83.84
46942;BME280;32676;52.630;4.896;2023-02-16T06:48:23;103321.63;;;7.46;83.88
46942;BME280;32676;52.630;4.896;2023-02-16T06:50:49;103308.50;;;7.45;83.92
46942;BME280;32676;52.630;4.896;2023-02-16T06:53:16;103310.22;;;7.43;83.81
46942;BME280;32676;52.630;4.896;2023-02-16T06:55:43;103306.72;;;7.44;83.98
46942;BME280;32676;52.630;4.896;2023-02-16T06:58:11;103311.97;;;7.44;84.15
46942;BME280;32676;52.630;4.896;2023-02-16T07:00:38;103326.00;;;7.46;84.18
46942;BME280;32676;52.630;4.896;2023-02-16T07:03:04;103333.03;;;7.50;84.28
46942;BME280;32676;52.630;4.896;2023-02-16T07:05:31;103327.81;;;7.50;84.26
46942;BME280;32676;52.630;4.896;2023-02-16T07:07:57;103335.69;;;7.52;84.35
46942;BME280;32676;52.630;4.896;2023-02-16T07:10:24;103343.59;;;7.53;84.44
46942;BME280;32676;52.630;4.896;2023-02-16T07:12:50;103343.59;;;7.53;84.50
46942;BME280;32676;52.630;4.896;2023-02-16T07:15:18;103345.31;;;7.54;84.60
46942;BME280;32676;52.630;4.896;2023-02-16T07:17:45;103354.09;;;7.56;84.42
46942;BME280;32676;52.630;4.896;2023-02-16T07:20:12;103354.09;;;7.56;84.59
46942;BME280;32676;52.630;4.896;2023-02-16T07:22:38;103354.09;;;7.56;84.62
46942;BME280;32676;52.630;4.896;2023-02-16T07:25:05;103374.25;;;7.62;84.69
46942;BME280;32676;52.630;4.896;2023-02-16T07:27:32;103374.19;;;7.57;84.82
46942;BME280;32676;52.630;4.896;2023-02-16T07:29:58;103396.16;;;7.65;84.77
46942;BME280;32676;52.630;4.896;2023-02-16T07:32:28;103424.22;;;7.73;84.73
46942;BME280;32676;52.630;4.896;2023-02-16T07:34:54;103438.28;;;7.78;84.80
46942;BME280;32676;52.630;4.896;2023-02-16T07:37:20;103476.84;;;7.85;84.69
46942;BME280;32676;52.630;4.896;2023-02-16T07:39:47;103480.38;;;7.87;84.52
46942;BME280;32676;52.630;4.896;2023-02-16T07:42:13;103493.50;;;7.88;84.43
46942;BME280;32676;52.630;4.896;2023-02-16T07:44:40;103488.25;;;7.88;84.42
46942;BME280;32676;52.630;4.896;2023-02-16T07:47:06;103497.91;;;7.91;84.37
46942;BME280;32676;52.630;4.896;2023-02-16T07:49:34;103511.94;;;7.93;84.31
46942;BME280;32676;52.630;4.896;2023-02-16T07:52:01;103526.00;;;7.98;84.27
46942;BME280;32676;52.630;4.896;2023-02-16T07:54:27;103530.34;;;7.98;84.17
46942;BME280;32676;52.630;4.896;2023-02-16T07:56:54;103559.31;;;8.05;84.27
46942;BME280;32676;52.630;4.896;2023-02-16T07:59:20;103581.25;;;8.11;84.46
46942;BME280;32676;52.630;4.896;2023-02-16T08:01:47;103605.78;;;8.14;84.41
46942;BME280;32676;52.630;4.896;2023-02-16T08:04:13;103605.00;;;8.17;84.24
46942;BME280;32676;52.630;4.896;2023-02-16T08:06:41;103631.31;;;8.23;84.24
46942;BME280;32676;52.630;4.896;2023-02-16T08:09:08;103651.44;;;8.25;84.31
46942;BME280;32676;52.630;4.896;2023-02-16T08:11:34;103671.66;;;8.31;84.27
46942;BME280;32676;52.630;4.896;2023-02-16T08:14:01;103680.47;;;8.33;84.31
46942;BME280;32676;52.630;4.896;2023-02-16T08:16:28;103681.38;;;8.35;84.26
46942;BME280;32676;52.630;4.896;2023-02-16T08:18:56;103688.38;;;8.36;84.26
46942;BME280;32676;52.630;4.896;2023-02-16T08:21:25;103699.72;;;8.35;84.38
46942;BME280;32676;52.630;4.896;2023-02-16T08:23:56;103708.56;;;8.40;84.33
46942;BME280;32676;52.630;4.896;2023-02-16T08:26:25;103732.28;;;8.45;84.64
46942;BME280;32676;52.630;4.896;2023-02-16T08:28:55;103748.97;;;8.49;84.63
46942;BME280;32676;52.630;4.896;2023-02-16T08:31:24;103756.03;;;8.53;84.65
46942;BME280;32676;52.630;4.896;2023-02-16T08:33:52;103775.31;;;8.55;84.65
46942;BME280;32676;52.630;4.896;2023-02-16T08:36:20;103770.06;;;8.55;84.60
46942;BME280;32676;52.630;4.896;2023-02-16T08:38:49;103775.38;;;8.58;84.61
46942;BME280;32676;52.630;4.896;2023-02-16T08:41:19;103766.47;;;8.50;84.85
46942;BME280;32676;52.630;4.896;2023-02-16T08:43:46;103788.56;;;8.61;84.57
46942;BME280;32676;52.630;4.896;2023-02-16T08:46:14;103806.91;;;8.61;84.81
46942;BME280;32676;52.630;4.896;2023-02-16T08:48:41;103824.56;;;8.68;84.81
46942;BME280;32676;52.630;4.896;2023-02-16T08:51:12;103824.63;;;8.71;84.94
46942;BME280;32676;52.630;4.896;2023-02-16T08:53:39;103835.09;;;8.71;85.01
46942;BME280;32676;52.630;4.896;2023-02-16T08:56:06;103849.22;;;8.76;85.33
46942;BME280;32676;52.630;4.896;2023-02-16T08:58:35;103859.78;;;8.79;85.71
46942;BME280;32676;52.630;4.896;2023-02-16T09:01:03;103869.41;;;8.79;85.42
46942;BME280;32676;52.630;4.896;2023-02-16T09:03:30;103871.88;;;8.74;85.61
46942;BME280;32676;52.630;4.896;2023-02-16T09:05:59;103907.22;;;8.89;85.55
46942;BME280;32676;52.630;4.896;2023-02-16T09:08:26;103928.31;;;8.95;85.81
46942;BME280;32676;52.630;4.896;2023-02-16T09:10:53;103944.06;;;8.95;85.69
46942;BME280;32676;52.630;4.896;2023-02-16T09:13:20;103955.56;;;9.00;85.84
46942;BME280;32676;52.630;4.896;2023-02-16T09:15:48;103967.94;;;9.04;85.91
46942;BME280;32676;52.630;4.896;2023-02-16T09:18:14;103966.97;;;9.02;85.80
46942;BME280;32676;52.630;4.896;2023-02-16T09:20:42;103961.72;;;9.02;85.83
46942;BME280;32676;52.630;4.896;2023-02-16T09:23:09;103962.63;;;9.02;85.79
46942;BME280;32676;52.630;4.896;2023-02-16T09:25:38;103950.34;;;9.01;85.91
46942;BME280;32676;52.630;4.896;2023-02-16T09:28:06;103951.22;;;9.02;86.02
46942;BME280;32676;52.630;4.896;2023-02-16T09:30:35;103974.09;;;9.06;85.89
46942;BME280;32676;52.630;4.896;2023-02-16T09:33:04;103976.75;;;9.09;86.02
46942;BME280;32676;52.630;4.896;2023-02-16T09:35:30;103984.59;;;9.08;86.16
46942;BME280;32676;52.630;4.896;2023-02-16T09:37:57;104010.00;;;9.09;86.21
46942;BME280;32676;52.630;4.896;2023-02-16T09:40:24;104015.47;;;9.18;85.91
46942;BME280;32676;52.630;4.896;2023-02-16T09:43:01;104014.50;;;9.14;85.92
46942;BME280;32676;52.630;4.896;2023-02-16T09:45:31;104006.69;;;9.16;86.08
46942;BME280;32676;52.630;4.896;2023-02-16T09:48:13;104018.13;;;9.19;86.14
46942;BME280;32676;52.630;4.896;2023-02-16T09:50:46;104038.31;;;9.22;85.83
46942;BME280;32676;52.630;4.896;2023-02-16T09:53:20;104060.34;;;9.29;86.03
46942;BME280;32676;52.630;4.896;2023-02-16T09:55:53;104075.22;;;9.28;86.05
46942;BME280;32676;52.630;4.896;2023-02-16T09:58:32;104094.66;;;9.36;86.07
46942;BME280;32676;52.630;4.896;2023-02-16T10:01:07;104104.31;;;9.37;85.87
46942;BME280;32676;52.630;4.896;2023-02-16T10:03:50;104137.78;;;9.46;85.78
46942;BME280;32676;52.630;4.896;2023-02-16T10:06:27;104158.94;;;9.52;85.78
46942;BME280;32676;52.630;4.896;2023-02-16T10:08:57;104164.09;;;9.49;85.79
46942;BME280;32676;52.630;4.896;2023-02-16T10:11:29;104187.97;;;9.58;85.63
46942;BME280;32676;52.630;4.896;2023-02-16T10:14:10;104211.78;;;9.65;85.62
46942;BME280;32676;52.630;4.896;2023-02-16T10:16:41;104204.69;;;9.60;85.61
46942;BME280;32676;52.630;4.896;2023-02-16T10:19:18;104202.97;;;9.63;85.57
46942;BME280;32676;52.630;4.896;2023-02-16T10:21:48;104185.34;;;9.58;85.20
46942;BME280;32676;52.630;4.896;2023-02-16T10:24:17;104189.72;;;9.58;85.16
46942;BME280;32676;52.630;4.896;2023-02-16T10:26:47;104207.34;;;9.64;85.24
46942;BME280;32676;52.630;4.896;2023-02-16T10:29:18;104227.63;;;9.69;84.98
46942;BME280;32676;52.630;4.896;2023-02-16T10:31:49;104254.03;;;9.74;84.97
46942;BME280;32676;52.630;4.896;2023-02-16T10:34:33;104272.59;;;9.82;84.79
46942;BME280;32676;52.630;4.896;2023-02-16T10:37:24;104312.16;;;9.86;84.85
46942;BME280;32676;52.630;4.896;2023-02-16T10:40:09;104354.47;;;9.98;84.61
46942;BME280;32676;52.630;4.896;2023-02-16T10:42:43;104373.06;;;10.05;84.40
46942;BME280;32676;52.630;4.896;2023-02-16T10:45:19;104395.94;;;10.09;84.35
46942;BME280;32676;52.630;4.896;2023-02-16T10:47:48;104399.44;;;10.09;84.21
46942;BME280;32676;52.630;4.896;2023-02-16T10:50:21;104403.91;;;10.12;83.90
46942;BME280;32676;52.630;4.896;2023-02-16T10:52:51;104417.97;;;10.14;83.80
46942;BME280;32676;52.630;4.896;2023-02-16T10:55:21;104439.16;;;10.20;83.61
46942;BME280;32676;52.630;4.896;2023-02-16T10:57:53;104449.69;;;10.20;83.29
46942;BME280;32676;52.630;4.896;2023-02-16T11:00:26;104463.84;;;10.25;83.38
46942;BME280;32676;52.630;4.896;2023-02-16T11:03:01;104464.72;;;10.24;83.01
46942;BME280;32676;52.630;4.896;2023-02-16T11:05:34;104478.00;;;10.30;83.03
46942;BME280;32676;52.630;4.896;2023-02-16T11:08:03;104498.31;;;10.34;82.74
46942;BME280;32676;52.630;4.896;2023-02-16T11:10:35;104507.16;;;10.38;82.41
46942;BME280;32676;52.630;4.896;2023-02-16T11:13:02;104525.72;;;10.43;82.22
46942;BME280;32676;52.630;4.896;2023-02-16T11:15:29;104538.09;;;10.47;82.21
46942;BME280;32676;52.630;4.896;2023-02-16T11:17:58;104546.91;;;10.49;82.08
46942;BME280;32676;52.630;4.896;2023-02-16T11:20:32;104544.28;;;10.49;81.78
46942;BME280;32676;52.630;4.896;2023-02-16T11:23:20;104556.59;;;10.50;81.92
46942;BME280;32676;52.630;4.896;2023-02-16T11:25:53;104561.91;;;10.51;81.86
46942;BME280;32676;52.630;4.896;2023-02-16T11:28:25;104593.66;;;10.59;81.84
46942;BME280;32676;52.630;4.896;2023-02-16T11:30:59;104603.41;;;10.63;81.55
46942;BME280;32676;52.630;4.896;2023-02-16T11:33:27;104610.47;;;10.64;81.56
46942;BME280;32676;52.630;4.896;2023-02-16T11:35:55;104621.06;;;10.67;81.19
46942;BME280;32676;52.630;4.896;2023-02-16T11:38:27;104649.25;;;10.71;80.71
46942;BME280;32676;52.630;4.896;2023-02-16T11:40:56;104644.00;;;10.71;80.53
46942;BME280;32676;52.630;4.896;2023-02-16T11:43:25;104654.59;;;10.74;80.25
46942;BME280;32676;52.630;4.896;2023-02-16T11:45:58;104674.03;;;10.80;80.24
46942;BME280;32676;52.630;4.896;2023-02-16T11:48:28;104692.59;;;10.84;80.13
46942;BME280;32676;52.630;4.896;2023-02-16T11:50:58;104700.50;;;10.86;80.28
46942;BME280;32676;52.630;4.896;2023-02-16T11:53:27;104735.84;;;10.94;80.03
46942;BME280;32676;52.630;4.896;2023-02-16T11:56:11;104732.34;;;10.95;80.02
46942;BME280;32676;52.630;4.896;2023-02-16T11:58:39;104756.19;;;11.00;79.51
46942;BME280;32676;52.630;4.896;2023-02-16T12:01:17;104766.88;;;11.04;79.17
46942;BME280;32676;52.630;4.896;2023-02-16T12:03:58;104773.91;;;11.05;78.74
46942;BME280;32676;52.630;4.896;2023-02-16T12:06:42;104794.19;;;11.09;78.86
46942;BME280;32676;52.630;4.896;2023-02-16T12:09:18;104838.38;;;11.20;78.20
46942;BME280;32676;52.630;4.896;2023-02-16T12:11:55;104889.53;;;11.28;78.04
46942;BME280;32676;52.630;4.896;2023-02-16T12:14:33;104930.25;;;11.39;77.60
46942;BME280;32676;52.630;4.896;2023-02-16T12:17:11;104986.97;;;11.57;77.13
46942;BME280;32676;52.630;4.896;2023-02-16T12:19:43;105041.72;;;11.67;76.55
46942;BME280;32676;52.630;4.896;2023-02-16T12:22:23;105082.47;;;11.78;76.29
46942;BME280;32676;52.630;4.896;2023-02-16T12:25:00;105097.59;;;11.84;75.80
46942;BME280;32676;52.630;4.896;2023-02-16T12:27:34;105080.72;;;11.79;75.38
46942;BME280;32676;52.630;4.896;2023-02-16T12:30:11;105047.19;;;11.73;74.23
46942;BME280;32676;52.630;4.896;2023-02-16T12:32:55;105043.59;;;11.71;73.77
46942;BME280;32676;52.630;4.896;2023-02-16T12:35:48;105020.66;;;11.67;73.47
46942;BME280;32676;52.630;4.896;2023-02-16T12:38:26;105025.09;;;11.68;73.56
46942;BME280;32676;52.630;4.896;2023-02-16T12:41:05;105050.78;;;11.75;73.54
46942;BME280;32676;52.630;4.896;2023-02-16T12:43:38;105079.09;;;11.82;73.90
46942;BME280;32676;52.630;4.896;2023-02-16T12:46:12;105080.88;;;11.83;73.71
46942;BME280;32676;52.630;4.896;2023-02-16T12:48:45;105073.81;;;11.82;73.97
46942;BME280;32676;52.630;4.896;2023-02-16T12:51:18;105061.41;;;11.78;74.13
46942;BME280;32676;52.630;4.896;2023-02-16T12:53:51;105048.16;;;11.75;74.07
46942;BME280;32676;52.630;4.896;2023-02-16T12:56:23;105047.28;;;11.76;74.20
46942;BME280;32676;52.630;4.896;2023-02-16T12:59:00;105029.59;;;11.72;74.60
46942;BME280;32676;52.630;4.896;2023-02-16T13:01:32;105018.06;;;11.68;74.61
46942;BME280;32676;52.630;4.896;2023-02-16T13:04:05;104990.75;;;11.65;74.97
46942;BME280;32676;52.630;4.896;2023-02-16T13:06:39;104951.78;;;11.55;74.83
46942;BME280;32676;52.630;4.896;2023-02-16T13:09:18;104923.56;;;11.50;74.75
46942;BME280;32676;52.630;4.896;2023-02-16T13:11:52;104914.72;;;11.48;74.91
46942;BME280;32676;52.630;4.896;2023-02-16T13:14:24;104926.25;;;11.52;75.03
46942;BME280;32676;52.630;4.896;2023-02-16T13:16:55;104935.97;;;11.55;75.14
46942;BME280;32676;52.630;4.896;2023-02-16T13:19:23;104951.88;;;11.58;75.44
46942;BME280;32676;52.630;4.896;2023-02-16T13:22:19;104970.44;;;11.62;75.23